»·PEaware :: N800DW KSNA-KAPC

N800DW :: KSNA-KAPC

FLIGHT INFORMATION

Flight Status: Arrived
Operator: Privately registered:
United States
More flights under this callsign
Pilot: Scott L. (17677)
Aircraft: Unknown
(SF50)
More flights by this aircraft type
Origin: KSNA John Wayne-Orange Co
United States
Destination: KAPC Napa Co
United States
More flights between these airports :: More routes between these airports
Route: +MOD OAKEY
File this flight plan on PilotEdge
Remarks:
Altitude:
(Current/Filed)
26,000ft
Speed:
(Current/Filed)
300kts
Departed: 05-Oct-18 09:26 AM
Arrived: 05-Oct-18 10:49 AM
Distance/Time
Traveled:
346nm/1:23
Distance/Time
To Go:
Arrived

Flight Plot

Page will automatically refresh every two minutes.

Flight plan parsing failed; only flown route is shown


Map Options




Map Legend


Flown Route
Filed Route
Departure Airport
Arrival Airport
Navaid (VOR, NDB)
Fix

Horizontal Profiles

Position Reports

Time Latitude Longitude Heading Altitude Ground
Speed
05-Oct-18 09:10 33.673568 -117.872553 297 60ft 0kts
05-Oct-18 09:11 33.673568 -117.872553 297 60ft 0kts
05-Oct-18 09:12 33.673568 -117.872553 297 60ft 0kts
05-Oct-18 09:13 33.673568 -117.872553 297 60ft 0kts
05-Oct-18 09:14 33.673568 -117.872553 297 60ft 0kts
05-Oct-18 09:15 33.673568 -117.872554 297 60ft 0kts
05-Oct-18 09:16 33.673568 -117.872554 297 60ft 0kts
05-Oct-18 09:17 33.673568 -117.872554 297 60ft 0kts
05-Oct-18 09:18 33.673568 -117.872553 297 60ft 0kts
05-Oct-18 09:19 33.673568 -117.872553 297 60ft 0kts
05-Oct-18 09:20 33.673568 -117.872553 297 60ft 0kts
05-Oct-18 09:21 33.673568 -117.872553 297 60ft 0kts
05-Oct-18 09:22 33.673568 -117.872553 297 60ft 0kts
05-Oct-18 09:23 33.673704 -117.872457 76 60ft 5kts
05-Oct-18 09:24 33.675330 -117.870560 28 60ft 10kts
05-Oct-18 09:25 33.679688 -117.867908 20 60ft 22kts
05-Oct-18 09:26 33.681923 -117.866037 96 60ft 0kts
05-Oct-18 09:27 33.681792 -117.865576 114 60ft 8kts
05-Oct-18 09:28 33.665777 -117.875192 207 704ft 136kts
05-Oct-18 09:29 33.622558 -117.891318 187 2835ft 204kts
05-Oct-18 09:30 33.562955 -117.909936 223 4916ft 244kts
05-Oct-18 09:31 33.511830 -117.966695 225 6936ft 259kts
05-Oct-18 09:32 33.503964 -118.045743 277 8929ft 252kts
05-Oct-18 09:33 33.508095 -118.128847 276 10916ft 249kts
05-Oct-18 09:34 33.511237 -118.210150 276 12889ft 242kts
05-Oct-18 09:35 33.514191 -118.289083 277 14857ft 234kts
05-Oct-18 09:36 33.516964 -118.365075 277 16817ft 225kts
05-Oct-18 09:37 33.519563 -118.437633 277 18769ft 213kts
05-Oct-18 09:38 33.546566 -118.481057 357 20648ft 193kts
05-Oct-18 09:39 33.599519 -118.476801 1 22308ft 189kts
05-Oct-18 09:40 33.649957 -118.470377 1 23950ft 178kts
05-Oct-18 09:41 33.698911 -118.463861 1 25200ft 183kts
05-Oct-18 09:42 33.750889 -118.459607 355 26065ft 201kts
05-Oct-18 09:43 33.810623 -118.459662 356 26064ft 246kts
05-Oct-18 09:44 33.882702 -118.459694 356 26057ft 272kts
05-Oct-18 09:45 33.959856 -118.459765 357 26052ft 284kts
05-Oct-18 09:46 34.035371 -118.476741 336 26042ft 285kts
05-Oct-18 09:47 34.107957 -118.513613 336 26054ft 287kts
05-Oct-18 09:48 34.180263 -118.550409 336 26060ft 289kts
05-Oct-18 09:49 34.254147 -118.588100 336 26062ft 290kts
05-Oct-18 09:50 34.328542 -118.625745 336 26060ft 291kts
05-Oct-18 09:51 34.401106 -118.661539 336 26062ft 291kts
05-Oct-18 09:52 34.471419 -118.705732 329 26061ft 290kts
05-Oct-18 09:53 34.541000 -118.754881 329 26057ft 291kts
05-Oct-18 09:54 34.610329 -118.803977 329 26080ft 280kts
05-Oct-18 09:55 34.672248 -118.847949 329 26047ft 253kts
05-Oct-18 09:56 34.735070 -118.892563 329 26084ft 279kts
05-Oct-18 09:57 34.804850 -118.942232 329 26078ft 300kts
05-Oct-18 09:58 34.878173 -118.994544 329 26075ft 310kts
05-Oct-18 09:59 34.952771 -119.047879 329 26074ft 315kts
05-Oct-18 10:00 35.028053 -119.101818 329 26088ft 316kts
05-Oct-18 10:01 35.103550 -119.156028 329 26156ft 316kts
05-Oct-18 10:02 35.179264 -119.210511 329 26155ft 317kts
05-Oct-18 10:03 35.255209 -119.265281 329 26155ft 318kts
05-Oct-18 10:04 35.331295 -119.320274 329 26155ft 318kts
05-Oct-18 10:05 35.407330 -119.375352 329 26155ft 318kts
05-Oct-18 10:06 35.483227 -119.430451 329 26155ft 318kts
05-Oct-18 10:07 35.559007 -119.486250 323 26140ft 319kts
05-Oct-18 10:08 35.627047 -119.555612 320 26155ft 318kts
05-Oct-18 10:09 35.695206 -119.625274 320 26155ft 318kts
05-Oct-18 10:10 35.762577 -119.694270 320 26155ft 318kts
05-Oct-18 10:11 35.830533 -119.764024 320 26155ft 318kts
05-Oct-18 10:12 35.898239 -119.833683 320 26155ft 318kts
05-Oct-18 10:13 35.961141 -119.910663 314 26155ft 318kts
05-Oct-18 10:14 36.022714 -119.988669 314 26155ft 318kts
05-Oct-18 10:15 36.084093 -120.066591 314 26155ft 318kts
05-Oct-18 10:16 36.145109 -120.144236 314 26164ft 318kts
05-Oct-18 10:17 36.206707 -120.222810 314 26164ft 318kts
05-Oct-18 10:18 36.282945 -120.274263 338 26169ft 318kts
05-Oct-18 10:19 36.364911 -120.314873 338 26164ft 318kts
05-Oct-18 10:20 36.446198 -120.355580 338 26164ft 319kts
05-Oct-18 10:21 36.528134 -120.396712 338 26164ft 319kts
05-Oct-18 10:22 36.609932 -120.437869 338 26164ft 319kts
05-Oct-18 10:23 36.692134 -120.479325 338 26164ft 319kts
05-Oct-18 10:24 36.773684 -120.520546 338 26164ft 319kts
05-Oct-18 10:25 36.855810 -120.562156 338 26164ft 319kts
05-Oct-18 10:26 36.937334 -120.603555 338 26155ft 319kts
05-Oct-18 10:27 37.019930 -120.645597 338 25833ft 328kts
05-Oct-18 10:28 37.095491 -120.684141 337 25216ft 337kts
05-Oct-18 10:29 37.182334 -120.728558 337 24532ft 341kts
05-Oct-18 10:30 37.270697 -120.773846 337 23560ft 348kts
05-Oct-18 10:31 37.360225 -120.819858 337 22481ft 352kts
05-Oct-18 10:32 37.450343 -120.866292 337 21394ft 352kts
05-Oct-18 10:33 37.540638 -120.912941 337 20302ft 352kts
05-Oct-18 10:34 37.629290 -120.962777 318 19127ft 353kts
05-Oct-18 10:35 37.689285 -121.059811 307 18093ft 350kts
05-Oct-18 10:36 37.747822 -121.156649 307 17006ft 349kts
05-Oct-18 10:37 37.806604 -121.254100 307 15641ft 354kts
05-Oct-18 10:38 37.866501 -121.353696 307 13961ft 357kts
05-Oct-18 10:39 37.926184 -121.453237 307 12350ft 355kts
05-Oct-18 10:40 37.985701 -121.552802 307 10757ft 354kts
05-Oct-18 10:41 38.044501 -121.651463 306 9173ft 352kts
05-Oct-18 10:42 38.079294 -121.759520 288 7484ft 290kts
05-Oct-18 10:43 38.102632 -121.849212 288 5854ft 266kts
05-Oct-18 10:44 38.125768 -121.938900 288 4262ft 268kts
05-Oct-18 10:45 38.147587 -122.023760 288 3975ft 231kts
05-Oct-18 10:46 38.165424 -122.093351 288 3978ft 195kts
05-Oct-18 10:47 38.181990 -122.154893 292 3839ft 170kts
05-Oct-18 10:48 38.197205 -122.215256 293 2373ft 187kts
05-Oct-18 10:49 38.231282 -122.247681 297 1635ft 124kts
05-Oct-18 10:50 38.219007 -122.279942 201 44ft 96kts
05-Oct-18 10:51 38.209288 -122.286103 256 10ft 17kts
05-Oct-18 10:52 38.208451 -122.288598 168 10ft 0kts

Navigation Log

Ident Type
Flight plan parsing failed, navigation log unavailable